Time;durP1;ratioP1;P1;durP2;ratioP2;P2;SDS_P1;SDS_P2;PMS_P1;PMS_P2;Temp;Humidity;BMP_temperature;BMP_pressure;BME280_temperature;BME280_humidity;BME280_pressure;Samples;Min_cycle;Max_cycle;Signal;HPM_P1;HPM_P2
2023/03/31 00:01:09;;;;;;;6.07;3.17;;;11.20;47.40;;;;;;6092597;23;20162;-76
2023/03/31 00:03:42;;;;;;;7.73;3.23;;;11.30;47.40;;;;;;6089639;23;20694;-76
2023/03/31 00:06:16;;;;;;;8.60;3.30;;;11.30;47.30;;;;;;6093722;23;20157;-77
2023/03/31 00:08:50;;;;;;;5.03;2.63;;;11.30;47.30;;;;;;6092649;23;20166;-77
2023/03/31 00:11:20;;;;;;;6.93;2.40;;;11.30;47.20;;;;;;6092140;23;20213;-78
2023/03/31 00:13:49;;;;;;;5.50;2.87;;;11.30;47.10;;;;;;6094437;23;20174;-78
2023/03/31 00:16:17;;;;;;;6.57;2.60;;;11.30;47.00;;;;;;6091882;23;20228;-77
2023/03/31 00:18:49;;;;;;;5.47;2.80;;;11.30;46.90;;;;;;6091237;23;20181;-76
2023/03/31 00:21:27;;;;;;;7.57;2.90;;;11.40;46.90;;;;;;6093430;23;20272;-76
2023/03/31 00:23:58;;;;;;;7.17;3.00;;;11.40;46.80;;;;;;6093431;23;20158;-77
2023/03/31 00:26:26;;;;;;;6.27;2.90;;;11.40;46.70;;;;;;6093539;23;20162;-79
2023/03/31 00:28:55;;;;;;;5.23;2.97;;;11.40;46.50;;;;;;6091131;23;20566;-78
2023/03/31 00:31:25;;;;;;;5.37;2.87;;;11.40;46.30;;;;;;6094280;23;20169;-76
2023/03/31 00:33:56;;;;;;;7.07;3.00;;;11.50;46.40;;;;;;6094883;23;20217;-76
2023/03/31 00:36:27;;;;;;;7.27;2.60;;;11.50;46.50;;;;;;6092479;23;20157;-77
2023/03/31 00:38:57;;;;;;;7.17;3.20;;;11.50;46.60;;;;;;6094027;23;20158;-76
2023/03/31 00:41:26;;;;;;;5.43;2.90;;;11.50;46.40;;;;;;6093888;23;20558;-76
2023/03/31 00:44:23;;;;;;;6.30;2.90;;;11.60;46.40;;;;;;6093768;23;21135;-77
2023/03/31 00:46:55;;;;;;;11.40;3.20;;;11.60;46.30;;;;;;6090927;23;20226;-76
2023/03/31 00:49:31;;;;;;;5.07;2.70;;;11.60;46.40;;;;;;6092040;23;20158;-76
2023/03/31 00:52:05;;;;;;;8.33;2.93;;;11.70;46.40;;;;;;6092251;23;20604;-77
2023/03/31 00:54:36;;;;;;;6.27;2.83;;;11.70;46.20;;;;;;6093916;23;20616;-77
2023/03/31 00:57:06;;;;;;;9.60;3.37;;;11.70;46.00;;;;;;6093983;23;20162;-76
2023/03/31 00:59:38;;;;;;;7.43;2.97;;;11.70;46.10;;;;;;6091873;23;20198;-76
2023/03/31 01:02:06;;;;;;;6.57;3.67;;;11.80;46.30;;;;;;6093522;23;20241;-76
2023/03/31 01:04:43;;;;;;;6.03;3.03;;;11.80;47.00;;;;;;6094448;23;20245;-76
2023/03/31 01:07:18;;;;;;;8.13;3.57;;;11.80;46.30;;;;;;6091923;23;20662;-77
2023/03/31 01:09:47;;;;;;;10.75;3.88;;;11.80;46.40;;;;;;6092317;23;20386;-76
2023/03/31 01:12:18;;;;;;;7.30;3.80;;;11.80;46.50;;;;;;6092196;23;20228;-76
2023/03/31 01:14:48;;;;;;;10.73;4.07;;;11.90;46.70;;;;;;6092648;23;20169;-76
2023/03/31 01:17:20;;;;;;;7.60;3.30;;;11.90;46.70;;;;;;6088301;23;20164;-76
2023/03/31 01:20:10;;;;;;;8.67;3.80;;;11.90;46.80;;;;;;6092199;23;20168;-76
2023/03/31 01:23:05;;;;;;;8.57;4.63;;;11.90;46.90;;;;;;6093434;23;20165;-76
2023/03/31 01:26:08;;;;;;;7.30;3.77;;;11.90;47.00;;;;;;6094236;23;20162;-77
2023/03/31 01:28:41;;;;;;;11.13;4.47;;;11.90;47.30;;;;;;6092672;23;20519;-76
2023/03/31 01:31:43;;;;;;;12.43;4.20;;;11.90;47.40;;;;;;6091969;23;20162;-76
2023/03/31 01:34:47;;;;;;;8.63;3.80;;;11.90;47.60;;;;;;6094079;23;20733;-76
2023/03/31 01:38:04;;;;;;;8.17;3.60;;;11.90;47.70;;;;;;6093172;23;20241;-76
2023/03/31 01:40:53;;;;;;;9.40;4.37;;;11.90;48.50;;;;;;6094235;23;20233;-76
2023/03/31 01:43:26;;;;;;;6.57;3.40;;;11.80;47.80;;;;;;6092344;23;20162;-77
2023/03/31 01:46:01;;;;;;;9.03;4.50;;;11.90;47.90;;;;;;6094205;23;20217;-77
2023/03/31 01:48:40;;;;;;;10.87;4.93;;;11.90;47.90;;;;;;6094005;23;20157;-76
2023/03/31 01:51:16;;;;;;;9.43;3.70;;;11.90;47.80;;;;;;6094177;23;20181;-76
2023/03/31 01:53:50;;;;;;;8.73;4.23;;;11.90;47.80;;;;;;6092793;23;20193;-76
2023/03/31 01:56:25;;;;;;;13.00;4.50;;;11.80;47.80;;;;;;6094526;23;20184;-76
2023/03/31 01:58:58;;;;;;;9.10;3.90;;;11.90;47.80;;;;;;6093114;23;20249;-76
2023/03/31 02:01:31;;;;;;;7.87;4.13;;;11.90;47.80;;;;;;6094186;23;20530;-76
2023/03/31 02:04:08;;;;;;;9.73;4.17;;;11.90;47.80;;;;;;6092628;23;20189;-77
2023/03/31 02:06:40;;;;;;;8.13;4.67;;;11.90;48.00;;;;;;6088487;23;20603;-78
2023/03/31 02:09:12;;;;;;;9.00;3.50;;;11.90;48.20;;;;;;6087665;23;20602;-76
2023/03/31 02:11:42;;;;;;;10.63;3.83;;;11.90;48.40;;;;;;6088303;23;20623;-77
2023/03/31 02:14:17;;;;;;;9.60;3.97;;;11.90;48.40;;;;;;6088096;23;20197;-77
2023/03/31 02:16:48;;;;;;;10.37;4.23;;;11.90;48.50;;;;;;6093300;23;20185;-76
2023/03/31 02:19:19;;;;;;;8.63;4.20;;;11.90;48.60;;;;;;6091165;23;20162;-77
2023/03/31 02:21:49;;;;;;;8.17;4.13;;;11.90;48.70;;;;;;6093584;23;20495;-76
2023/03/31 02:24:21;;;;;;;10.17;4.47;;;11.90;48.70;;;;;;6092006;23;20191;-76
2023/03/31 02:26:55;;;;;;;5.93;3.33;;;11.90;48.90;;;;;;6091635;23;20166;-78
2023/03/31 02:29:24;;;;;;;11.07;3.83;;;11.90;49.00;;;;;;6090915;23;20256;-76
2023/03/31 02:31:57;;;;;;;8.47;4.20;;;11.90;49.10;;;;;;6093739;23;20169;-76
2023/03/31 02:34:25;;;;;;;12.60;4.43;;;11.90;49.10;;;;;;6093334;23;20186;-76
2023/03/31 02:36:54;;;;;;;8.80;4.53;;;11.90;49.40;;;;;;6092911;23;20679;-76
2023/03/31 02:39:26;;;;;;;9.03;4.50;;;12.00;49.40;;;;;;6091330;23;20174;-77
2023/03/31 02:41:57;;;;;;;11.77;4.10;;;12.00;49.20;;;;;;6090209;23;20616;-77
2023/03/31 02:44:26;;;;;;;9.20;4.33;;;12.00;49.30;;;;;;6092927;23;20162;-76
2023/03/31 02:46:55;;;;;;;10.03;4.43;;;12.00;49.40;;;;;;6090725;23;20205;-77
2023/03/31 02:49:23;;;;;;;10.20;4.23;;;12.00;49.40;;;;;;6090756;23;20230;-77
2023/03/31 02:52:30;;;;;;;9.90;4.70;;;12.00;49.20;;;;;;6091180;23;20177;-77
2023/03/31 02:55:26;;;;;;;6.93;3.93;;;12.00;49.30;;;;;;6091710;23;20190;-77
2023/03/31 02:58:17;;;;;;;8.40;3.97;;;12.00;49.30;;;;;;6098357;23;20202;-79
2023/03/31 03:01:00;;;;;;;9.63;4.00;;;12.00;49.10;;;;;;6089870;23;20616;-76
2023/03/31 03:03:37;;;;;;;7.63;3.93;;;11.90;49.10;;;;;;6091327;23;20221;-79
2023/03/31 03:06:19;;;;;;;11.10;4.10;;;11.90;48.90;;;;;;6090724;23;20197;-76
2023/03/31 03:09:02;;;;;;;7.80;4.43;;;11.90;48.90;;;;;;6090327;23;20162;-77
2023/03/31 03:11:38;;;;;;;8.87;4.57;;;11.90;48.90;;;;;;6087880;23;20169;-76
2023/03/31 03:14:17;;;;;;;10.63;4.70;;;11.90;49.10;;;;;;6086605;23;20264;-76
2023/03/31 03:16:50;;;;;;;11.93;4.20;;;11.90;49.10;;;;;;6087065;23;20478;-76
2023/03/31 03:19:21;;;;;;;8.23;4.17;;;11.90;49.10;;;;;;6087740;23;20703;-78
2023/03/31 03:21:50;;;;;;;14.83;4.03;;;11.90;49.20;;;;;;6091690;23;20158;-76
2023/03/31 03:24:18;;;;;;;7.93;4.00;;;11.90;49.20;;;;;;6091415;23;20639;-76
2023/03/31 03:26:47;;;;;;;8.70;3.77;;;11.90;48.90;;;;;;6089181;23;20238;-76
2023/03/31 03:29:17;;;;;;;13.77;3.80;;;11.90;48.90;;;;;;6091699;23;20176;-76
2023/03/31 03:31:45;;;;;;;7.70;4.17;;;11.80;48.50;;;;;;6093344;23;20180;-76
2023/03/31 03:34:13;;;;;;;11.30;4.10;;;11.80;48.50;;;;;;6092968;23;20691;-76
2023/03/31 03:36:42;;;;;;;8.17;4.17;;;11.80;48.70;;;;;;6093974;23;20627;-76
2023/03/31 03:39:11;;;;;;;10.87;3.97;;;11.80;48.60;;;;;;6092647;23;20174;-77
2023/03/31 03:41:39;;;;;;;11.70;4.43;;;11.80;48.80;;;;;;6090495;23;20233;-77
2023/03/31 03:44:08;;;;;;;9.87;4.30;;;11.80;48.80;;;;;;6088073;23;20241;-76
2023/03/31 03:46:38;;;;;;;8.27;4.33;;;11.80;48.90;;;;;;6093067;23;20176;-78
2023/03/31 03:49:06;;;;;;;9.67;3.90;;;11.80;48.70;;;;;;6092348;23;20191;-78
2023/03/31 03:51:34;;;;;;;13.10;4.00;;;11.80;48.90;;;;;;6094118;23;20233;-77
2023/03/31 03:54:03;;;;;;;6.97;3.40;;;11.80;48.90;;;;;;6093901;23;20221;-76
2023/03/31 03:56:31;;;;;;;7.60;3.77;;;11.80;49.30;;;;;;6090108;23;20178;-78
2023/03/31 03:58:59;;;;;;;7.13;3.90;;;11.80;49.50;;;;;;6091816;23;20197;-76
2023/03/31 04:01:28;;;;;;;16.10;4.57;;;11.80;50.10;;;;;;6089733;23;20237;-77
2023/03/31 04:03:58;;;;;;;6.70;3.90;;;11.80;50.60;;;;;;6088590;23;20635;-77
2023/03/31 04:06:26;;;;;;;9.50;4.70;;;11.80;50.60;;;;;;6089244;23;20225;-76
2023/03/31 04:08:54;;;;;;;10.27;4.67;;;11.80;51.10;;;;;;6087636;23;20178;-77
2023/03/31 04:11:23;;;;;;;10.83;4.83;;;11.80;51.60;;;;;;6089297;23;20483;-77
2023/03/31 04:13:51;;;;;;;10.13;5.67;;;11.80;51.60;;;;;;6091003;23;20208;-76
2023/03/31 04:16:21;;;;;;;12.70;4.30;;;11.70;51.90;;;;;;6092884;23;20173;-76
2023/03/31 04:18:51;;;;;;;9.20;5.00;;;11.70;52.10;;;;;;6093442;23;20174;-76
2023/03/31 04:21:22;;;;;;;8.90;4.80;;;11.70;52.10;;;;;;6091966;23;20548;-76
2023/03/31 04:23:57;;;;;;;7.23;4.30;;;11.70;52.30;;;;;;6092782;23;20163;-78
2023/03/31 04:26:37;;;;;;;9.90;4.13;;;11.70;52.30;;;;;;6094233;23;20169;-77
2023/03/31 04:29:06;;;;;;;13.40;4.90;;;11.70;52.50;;;;;;6091290;23;20233;-76
2023/03/31 04:31:37;;;;;;;8.90;4.80;;;11.70;52.60;;;;;;6092594;23;20173;-76
2023/03/31 04:34:12;;;;;;;12.20;4.50;;;11.60;52.70;;;;;;6094436;23;20608;-76
2023/03/31 04:36:45;;;;;;;10.37;4.87;;;11.60;52.80;;;;;;6093137;23;20181;-77
2023/03/31 04:39:15;;;;;;;10.50;4.33;;;11.60;53.10;;;;;;6091048;23;20162;-76
2023/03/31 04:41:44;;;;;;;14.30;5.30;;;11.50;53.40;;;;;;6093459;23;20174;-77
2023/03/31 04:44:13;;;;;;;15.43;4.23;;;11.50;53.90;;;;;;6092966;23;20170;-77
2023/03/31 04:46:41;;;;;;;6.50;3.87;;;11.50;53.90;;;;;;6092707;23;20177;-77
2023/03/31 04:49:09;;;;;;;13.37;3.73;;;11.50;54.00;;;;;;6089372;23;20546;-76
2023/03/31 04:51:38;;;;;;;13.17;4.63;;;11.50;54.10;;;;;;6093760;23;20229;-78
2023/03/31 04:54:08;;;;;;;11.03;4.37;;;11.50;54.50;;;;;;6092536;23;20181;-77
2023/03/31 04:56:36;;;;;;;7.10;3.87;;;11.50;54.80;;;;;;6093296;23;20182;-76
2023/03/31 04:59:04;;;;;;;9.50;3.80;;;11.40;55.30;;;;;;6090129;23;20238;-76
2023/03/31 05:01:35;;;;;;;8.07;3.33;;;11.50;55.30;;;;;;6092558;23;20547;-77
2023/03/31 05:04:04;;;;;;;7.87;3.60;;;11.40;55.80;;;;;;6094195;23;20608;-77
2023/03/31 05:06:32;;;;;;;10.53;3.80;;;11.40;55.70;;;;;;6090377;23;20719;-75
2023/03/31 05:09:01;;;;;;;7.97;3.77;;;11.50;56.00;;;;;;6092516;23;20178;-77
2023/03/31 05:11:31;;;;;;;8.37;4.10;;;11.50;56.80;;;;;;6092028;23;20178;-77
2023/03/31 05:13:59;;;;;;;10.90;3.87;;;11.50;56.80;;;;;;6090333;23;20177;-76
2023/03/31 05:16:27;;;;;;;10.57;4.27;;;11.60;57.10;;;;;;6091806;23;20174;-75
2023/03/31 05:18:56;;;;;;;11.93;4.00;;;11.60;57.60;;;;;;6091953;23;20240;-76
2023/03/31 05:21:25;;;;;;;8.60;4.00;;;11.50;57.80;;;;;;6092321;23;20627;-75
2023/03/31 05:23:54;;;;;;;11.17;4.07;;;11.50;58.30;;;;;;6090787;23;20174;-75
2023/03/31 05:26:23;;;;;;;8.60;4.03;;;11.60;58.40;;;;;;6091810;23;20233;-76
2023/03/31 05:28:54;;;;;;;8.37;4.13;;;11.60;59.40;;;;;;6093498;23;20228;-76
2023/03/31 05:31:22;;;;;;;10.37;4.70;;;11.60;60.30;;;;;;6090754;23;20166;-76
2023/03/31 05:33:51;;;;;;;7.47;4.23;;;11.50;61.50;;;;;;6093331;23;20216;-76
2023/03/31 05:36:22;;;;;;;8.90;4.33;;;11.50;62.20;;;;;;6095241;23;20194;-75
2023/03/31 05:38:51;;;;;;;7.50;4.60;;;11.50;64.30;;;;;;6093998;23;20162;-77
2023/03/31 05:41:19;;;;;;;10.37;4.70;;;11.40;64.30;;;;;;6093483;23;20170;-80
2023/03/31 05:43:48;;;;;;;8.17;3.70;;;11.40;64.20;;;;;;6093832;23;20178;-76
2023/03/31 05:46:18;;;;;;;8.57;4.30;;;11.50;64.50;;;;;;6089950;23;20184;-77
2023/03/31 05:48:46;;;;;;;9.30;4.53;;;11.50;65.70;;;;;;6088318;23;20640;-77
2023/03/31 05:51:15;;;;;;;8.87;4.80;;;11.50;65.60;;;;;;6087307;23;20174;-77
2023/03/31 05:53:43;;;;;;;12.03;5.00;;;11.50;65.80;;;;;;6092433;23;20236;-76
2023/03/31 05:56:12;;;;;;;10.13;5.07;;;11.40;67.50;;;;;;6091690;23;20198;-78
2023/03/31 05:58:40;;;;;;;8.07;4.20;;;11.40;67.70;;;;;;6088378;23;20289;-77
2023/03/31 06:01:11;;;;;;;9.27;5.00;;;11.30;69.20;;;;;;6089760;23;20629;-78
2023/03/31 06:03:41;;;;;;;10.97;5.07;;;11.30;69.50;;;;;;6093860;23;20518;-75
2023/03/31 06:06:11;;;;;;;10.23;4.83;;;11.30;71.20;;;;;;6094264;23;20204;-77
2023/03/31 06:08:40;;;;;;;13.47;5.17;;;11.30;70.40;;;;;;6093185;23;20173;-78
2023/03/31 06:11:18;;;;;;;9.03;4.90;;;11.30;70.60;;;;;;6092124;23;20224;-77
2023/03/31 06:13:47;;;;;;;8.57;4.93;;;11.30;71.50;;;;;;6093001;23;20725;-78
2023/03/31 06:16:17;;;;;;;10.00;5.00;;;11.40;71.80;;;;;;6088588;23;20861;-78
2023/03/31 06:18:47;;;;;;;11.07;5.20;;;11.40;72.80;;;;;;6092388;23;20166;-79
2023/03/31 06:21:17;;;;;;;10.20;5.00;;;11.40;73.60;;;;;;6093272;23;20635;-76
2023/03/31 06:23:46;;;;;;;9.30;4.77;;;11.30;75.40;;;;;;6094753;23;20184;-77
2023/03/31 06:26:16;;;;;;;9.47;4.70;;;11.30;74.90;;;;;;6092982;23;20174;-76
2023/03/31 06:28:48;;;;;;;11.93;5.73;;;11.20;76.20;;;;;;6089568;23;20181;-75
2023/03/31 06:31:21;;;;;;;8.93;5.10;;;11.20;76.10;;;;;;6091432;23;20169;-77
2023/03/31 06:33:51;;;;;;;11.40;5.57;;;11.20;77.20;;;;;;6093871;23;20162;-77
2023/03/31 06:36:21;;;;;;;10.67;5.80;;;11.10;77.50;;;;;;6094771;23;20550;-77
2023/03/31 06:38:50;;;;;;;13.37;5.93;;;11.10;78.60;;;;;;6093540;23;20177;-77
2023/03/31 06:41:21;;;;;;;10.50;6.00;;;11.00;80.00;;;;;;6091000;23;20181;-77
2023/03/31 06:43:50;;;;;;;8.80;5.33;;;11.00;79.70;;;;;;6092415;23;20245;-78
2023/03/31 06:46:19;;;;;;;10.37;5.87;;;11.00;81.10;;;;;;6091508;23;20674;-77
2023/03/31 06:48:47;;;;;;;12.00;6.10;;;11.00;80.90;;;;;;6092083;23;20212;-77
2023/03/31 06:51:17;;;;;;;11.17;5.60;;;11.00;81.80;;;;;;6091589;23;20693;-77
2023/03/31 06:53:46;;;;;;;9.97;5.47;;;10.80;82.70;;;;;;6092694;23;20210;-78
2023/03/31 06:56:14;;;;;;;11.17;5.90;;;10.80;83.90;;;;;;6091960;23;20667;-77
2023/03/31 06:58:42;;;;;;;11.73;5.33;;;10.80;83.90;;;;;;6091337;23;20229;-77
2023/03/31 07:01:11;;;;;;;11.85;5.88;;;10.70;84.40;;;;;;6092675;23;20386;-77
2023/03/31 07:03:39;;;;;;;12.30;6.30;;;10.80;84.50;;;;;;6094388;23;20579;-79
2023/03/31 07:06:08;;;;;;;13.70;6.17;;;10.70;85.00;;;;;;6090147;23;20174;-81
2023/03/31 07:08:38;;;;;;;10.53;5.57;;;10.80;85.10;;;;;;6094163;23;20178;-78
2023/03/31 07:11:06;;;;;;;10.70;5.90;;;10.80;84.80;;;;;;6094041;23;20178;-80
2023/03/31 07:13:35;;;;;;;10.37;5.10;;;10.80;86.40;;;;;;6095027;23;20182;-78
2023/03/31 07:16:05;;;;;;;13.17;5.70;;;10.70;87.30;;;;;;6093815;23;20689;-78
2023/03/31 07:18:35;;;;;;;10.97;5.17;;;10.70;86.70;;;;;;6095379;23;20158;-82
2023/03/31 07:21:06;;;;;;;11.20;5.53;;;10.70;87.80;;;;;;6096252;23;20283;-78
2023/03/31 07:23:39;;;;;;;8.97;5.47;;;10.60;87.90;;;;;;6096891;23;20173;-78
2023/03/31 07:26:07;;;;;;;16.67;6.03;;;10.60;88.20;;;;;;6095934;23;20210;-78
2023/03/31 07:28:36;;;;;;;11.63;5.50;;;10.60;87.30;;;;;;6096051;23;20170;-81
2023/03/31 07:31:11;;;;;;;11.57;5.97;;;10.60;87.60;;;;;;6094330;23;20699;-78
2023/03/31 07:33:39;;;;;;;11.63;5.73;;;10.60;88.10;;;;;;6095225;23;20165;-81
2023/03/31 07:36:08;;;;;;;10.43;4.93;;;10.60;87.50;;;;;;6096070;23;20209;-79
2023/03/31 07:38:44;;;;;;;8.53;5.20;;;10.70;87.20;;;;;;6095263;23;20166;-77
2023/03/31 07:41:14;;;;;;;11.40;5.80;;;10.60;89.70;;;;;;6093882;23;20158;-80
2023/03/31 07:43:43;;;;;;;11.60;5.23;;;10.60;88.80;;;;;;6094141;23;20493;-79
2023/03/31 07:46:16;;;;;;;10.23;5.00;;;10.60;88.30;;;;;;6094159;23;20233;-77
2023/03/31 07:48:46;;;;;;;13.03;5.00;;;10.60;88.00;;;;;;6096070;23;20166;-77
2023/03/31 07:51:16;;;;;;;10.53;5.90;;;10.70;88.70;;;;;;6086426;23;20181;-77
2023/03/31 07:53:48;;;;;;;14.40;5.63;;;10.70;89.10;;;;;;6091115;23;20531;-76
2023/03/31 07:56:16;;;;;;;12.43;6.27;;;10.70;89.70;;;;;;6093018;23;20194;-77
2023/03/31 07:58:46;;;;;;;10.13;5.77;;;10.80;89.20;;;;;;6093995;23;20659;-78
2023/03/31 08:01:16;;;;;;;10.17;5.43;;;10.80;89.60;;;;;;6091626;23;20237;-77
2023/03/31 08:03:45;;;;;;;10.77;6.40;;;10.80;89.10;;;;;;6094062;23;20162;-78
2023/03/31 08:06:19;;;;;;;10.90;6.17;;;10.80;90.20;;;;;;6091636;23;20630;-78
2023/03/31 08:08:49;;;;;;;11.87;5.93;;;10.80;90.50;;;;;;6093773;23;20608;-79
2023/03/31 08:11:19;;;;;;;11.13;6.63;;;10.80;90.50;;;;;;6093298;23;20221;-77
2023/03/31 08:13:49;;;;;;;11.57;6.47;;;10.90;90.50;;;;;;6093360;23;20159;-79
2023/03/31 08:16:17;;;;;;;11.70;7.40;;;10.90;90.70;;;;;;6089476;23;20202;-79
2023/03/31 08:18:46;;;;;;;11.07;6.33;;;11.00;90.80;;;;;;6091571;23;20174;-78
2023/03/31 08:21:15;;;;;;;9.13;5.93;;;11.00;91.00;;;;;;6092880;23;20174;-79
2023/03/31 08:23:43;;;;;;;12.50;6.90;;;11.10;90.70;;;;;;6094479;23;20178;-79
2023/03/31 08:26:16;;;;;;;13.43;6.10;;;11.10;91.20;;;;;;6094584;23;20630;-78
2023/03/31 08:28:47;;;;;;;11.73;6.73;;;11.10;91.10;;;;;;6092071;23;20166;-79
2023/03/31 08:31:17;;;;;;;12.70;6.40;;;11.20;90.90;;;;;;6090864;23;20158;-79
2023/03/31 08:33:46;;;;;;;13.57;6.30;;;11.30;91.20;;;;;;6089463;23;20162;-78
2023/03/31 08:36:15;;;;;;;11.57;6.27;;;11.30;91.20;;;;;;6094530;23;20206;-77
2023/03/31 08:38:45;;;;;;;10.30;5.57;;;11.30;91.50;;;;;;6091359;23;20498;-79
2023/03/31 08:41:37;;;;;;;9.87;5.80;;;11.40;91.40;;;;;;6093038;23;20170;-77
2023/03/31 08:44:11;;;;;;;14.40;5.73;;;11.50;91.80;;;;;;6096320;23;20158;-78
2023/03/31 08:46:40;;;;;;;10.37;5.97;;;11.60;91.90;;;;;;6093767;23;20691;-77
2023/03/31 08:49:15;;;;;;;11.77;5.73;;;11.70;92.00;;;;;;6095293;23;20178;-78
2023/03/31 08:51:48;;;;;;;11.50;4.90;;;11.80;92.20;;;;;;6093845;23;20165;-77
2023/03/31 08:54:31;;;;;;;8.63;5.40;;;11.90;92.10;;;;;;6093078;23;20170;-78
2023/03/31 08:57:03;;;;;;;12.07;5.10;;;12.00;92.60;;;;;;6094766;23;20189;-78
2023/03/31 08:59:33;;;;;;;8.27;4.97;;;12.10;92.40;;;;;;6088998;23;20197;-76
2023/03/31 09:02:11;;;;;;;8.93;5.03;;;12.20;92.40;;;;;;6093951;23;20166;-79
2023/03/31 09:05:05;;;;;;;7.40;4.40;;;12.30;92.40;;;;;;6093837;23;20162;-76
2023/03/31 09:07:43;;;;;;;9.93;4.97;;;12.40;92.20;;;;;;6094529;23;20519;-77
2023/03/31 09:10:27;;;;;;;9.63;5.67;;;12.40;91.90;;;;;;6092487;23;20169;-77
2023/03/31 09:13:04;;;;;;;10.33;4.67;;;12.50;92.10;;;;;;6089732;23;20630;-77
2023/03/31 09:15:40;;;;;;;7.43;4.43;;;12.70;91.90;;;;;;6092345;23;20213;-76
2023/03/31 09:18:15;;;;;;;8.17;4.57;;;12.90;92.00;;;;;;6090162;23;20185;-76
2023/03/31 09:20:48;;;;;;;8.20;4.93;;;13.10;92.10;;;;;;6089179;23;20228;-77
2023/03/31 09:23:27;;;;;;;8.93;4.43;;;13.30;92.20;;;;;;6088850;23;20166;-77
2023/03/31 09:25:57;;;;;;;7.73;4.60;;;13.40;91.90;;;;;;6090347;23;20478;-76
2023/03/31 09:28:34;;;;;;;9.43;4.80;;;13.60;91.50;;;;;;6092808;23;20213;-76
2023/03/31 09:31:08;;;;;;;8.57;4.53;;;13.80;91.20;;;;;;6093711;23;20217;-77
2023/03/31 09:33:42;;;;;;;6.97;4.30;;;14.00;91.20;;;;;;6093261;23;20498;-79
2023/03/31 09:36:15;;;;;;;6.70;4.10;;;14.10;91.00;;;;;;6092125;23;20498;-77
2023/03/31 09:38:45;;;;;;;6.40;4.13;;;14.20;90.40;;;;;;6093162;23;20512;-76
2023/03/31 09:41:17;;;;;;;9.07;4.33;;;14.30;90.10;;;;;;6092809;23;20178;-77
2023/03/31 09:43:48;;;;;;;10.60;5.43;;;14.40;90.20;;;;;;6094461;23;20600;-77
2023/03/31 09:46:21;;;;;;;11.27;5.23;;;14.50;89.60;;;;;;6094365;23;20596;-77
2023/03/31 09:48:55;;;;;;;9.73;4.30;;;14.60;88.60;;;;;;6092892;23;20198;-77
2023/03/31 09:51:29;;;;;;;8.27;4.43;;;14.70;88.40;;;;;;6091960;23;20237;-76
2023/03/31 09:54:03;;;;;;;9.23;4.37;;;14.80;87.50;;;;;;6092915;23;20648;-76
2023/03/31 09:56:34;;;;;;;7.60;4.83;;;14.90;87.20;;;;;;6092879;23;20169;-76
2023/03/31 09:59:04;;;;;;;9.17;4.57;;;15.00;86.90;;;;;;6090842;23;20200;-77
2023/03/31 10:01:35;;;;;;;8.30;4.47;;;15.20;86.60;;;;;;6093528;23;20512;-77
2023/03/31 10:04:08;;;;;;;10.20;5.37;;;15.30;85.90;;;;;;6091040;23;20173;-77
2023/03/31 10:06:41;;;;;;;7.80;5.10;;;15.40;86.00;;;;;;6089620;23;20162;-75
2023/03/31 10:09:11;;;;;;;9.30;4.83;;;15.40;85.50;;;;;;6094220;23;20540;-77
2023/03/31 10:11:40;;;;;;;8.10;5.07;;;15.50;85.20;;;;;;6093455;23;20237;-77
2023/03/31 10:14:14;;;;;;;9.80;4.57;;;15.70;85.30;;;;;;6090580;23;20229;-74
2023/03/31 10:16:48;;;;;;;8.80;5.43;;;15.70;84.10;;;;;;6094842;23;20161;-75
2023/03/31 10:19:22;;;;;;;36.53;23.90;;;15.80;83.20;;;;;;6094697;23;20545;-76
2023/03/31 10:21:58;;;;;;;18.00;11.37;;;15.90;83.50;;;;;;6093811;23;20166;-76
2023/03/31 10:24:35;;;;;;;11.10;5.77;;;16.00;83.50;;;;;;6095651;23;20458;-76
2023/03/31 10:27:07;;;;;;;11.47;6.77;;;16.20;83.00;;;;;;6094769;23;20162;-79
2023/03/31 10:29:39;;;;;;;8.17;5.27;;;16.30;82.70;;;;;;6095157;23;20520;-77
2023/03/31 10:32:15;;;;;;;9.03;5.57;;;16.40;81.90;;;;;;6094237;23;20612;-76
2023/03/31 10:34:44;;;;;;;8.10;5.47;;;16.50;81.80;;;;;;6094173;23;20168;-75
2023/03/31 10:37:17;;;;;;;9.00;5.60;;;16.60;81.60;;;;;;6094382;23;20182;-76
2023/03/31 10:39:46;;;;;;;11.67;5.93;;;16.80;81.20;;;;;;6093342;23;20594;-76
2023/03/31 10:42:21;;;;;;;9.03;5.53;;;16.80;80.60;;;;;;6094428;23;20294;-76
2023/03/31 10:45:11;;;;;;;10.87;5.83;;;16.90;80.20;;;;;;6095716;23;20200;-76
2023/03/31 10:47:53;;;;;;;9.20;5.53;;;16.90;79.90;;;;;;6090230;23;20571;-77
2023/03/31 10:50:27;;;;;;;18.07;6.63;;;17.00;79.50;;;;;;6093733;23;20620;-76
2023/03/31 10:53:02;;;;;;;11.27;5.70;;;17.10;79.50;;;;;;6094417;23;20162;-76
2023/03/31 10:55:36;;;;;;;9.47;5.60;;;17.20;79.70;;;;;;6093198;23;20161;-76
2023/03/31 10:58:20;;;;;;;7.90;5.53;;;17.30;79.80;;;;;;6094222;23;20581;-77
2023/03/31 11:01:03;;;;;;;11.90;5.57;;;17.30;79.70;;;;;;6094262;23;20162;-76
2023/03/31 11:03:55;;;;;;;12.40;5.60;;;17.40;79.40;;;;;;6093499;23;20162;-76
2023/03/31 11:06:31;;;;;;;8.73;5.57;;;17.50;79.10;;;;;;6095323;23;20158;-77
2023/03/31 11:09:10;;;;;;;14.43;6.37;;;17.50;78.60;;;;;;6096031;23;20166;-77
2023/03/31 11:12:00;;;;;;;8.70;5.50;;;17.60;77.70;;;;;;6094129;23;20470;-79
2023/03/31 11:14:40;;;;;;;9.93;5.53;;;17.60;77.20;;;;;;6094983;23;20221;-77
2023/03/31 11:17:23;;;;;;;15.43;5.73;;;17.70;77.50;;;;;;6094028;23;20158;-78
2023/03/31 11:19:59;;;;;;;8.10;4.93;;;17.70;77.50;;;;;;6093281;23;20169;-77
2023/03/31 11:22:34;;;;;;;9.53;5.83;;;17.80;77.60;;;;;;6092477;23;20161;-77
2023/03/31 11:25:22;;;;;;;10.67;6.30;;;17.80;77.60;;;;;;6093785;23;20169;-76
2023/03/31 11:28:03;;;;;;;8.83;5.50;;;18.00;78.60;;;;;;6092342;23;20162;-77
2023/03/31 11:30:36;;;;;;;9.93;5.00;;;18.00;77.10;;;;;;6090103;23;20252;-77
2023/03/31 11:33:31;;;;;;;8.83;5.07;;;18.10;76.30;;;;;;6091621;23;20166;-76
2023/03/31 11:36:12;;;;;;;7.00;4.67;;;18.10;76.10;;;;;;6092223;23;20174;-77
2023/03/31 11:38:52;;;;;;;10.37;4.47;;;18.30;76.10;;;;;;6092197;23;20237;-77
2023/03/31 11:41:28;;;;;;;12.07;4.90;;;18.30;75.70;;;;;;6094457;23;20195;-76
2023/03/31 11:44:02;;;;;;;6.83;4.57;;;18.40;76.30;;;;;;6094090;23;20157;-77
2023/03/31 11:46:37;;;;;;;8.13;4.50;;;18.40;75.70;;;;;;6094942;23;20541;-76
2023/03/31 11:49:15;;;;;;;7.50;4.43;;;18.60;75.80;;;;;;6093292;23;20165;-77
2023/03/31 11:51:50;;;;;;;6.50;3.83;;;18.70;75.00;;;;;;6092747;23;20612;-77
2023/03/31 11:54:25;;;;;;;6.30;3.53;;;18.70;74.70;;;;;;6095650;23;20189;-78
2023/03/31 11:56:56;;;;;;;6.27;4.23;;;18.90;74.20;;;;;;6094823;23;20574;-77
2023/03/31 11:59:28;;;;;;;7.70;3.90;;;19.00;73.50;;;;;;6092964;23;20264;-76
2023/03/31 12:02:05;;;;;;;6.00;3.67;;;19.10;73.60;;;;;;6094812;23;20165;-77
2023/03/31 12:04:40;;;;;;;6.90;3.87;;;19.20;73.90;;;;;;6095725;23;20520;-77
2023/03/31 12:07:22;;;;;;;7.97;3.27;;;19.30;72.40;;;;;;6093369;23;20558;-77
2023/03/31 12:10:01;;;;;;;9.17;3.60;;;19.50;72.00;;;;;;6091682;23;20248;-77
2023/03/31 12:12:33;;;;;;;7.67;2.80;;;19.60;71.70;;;;;;6092638;23;20215;-76
2023/03/31 12:15:08;;;;;;;6.32;3.22;;;19.70;71.80;;;;;;6088589;23;20170;-78
2023/03/31 12:17:40;;;;;;;5.07;2.60;;;19.80;71.20;;;;;;6094904;23;20194;-77
2023/03/31 12:20:21;;;;;;;6.00;2.97;;;20.00;69.70;;;;;;6092124;23;20193;-77
2023/03/31 12:22:50;;;;;;;7.53;3.25;;;20.10;68.70;;;;;;6096086;23;20162;-77
2023/03/31 12:25:24;;;;;;;4.85;2.53;;;20.20;68.60;;;;;;6094319;23;20706;-76
2023/03/31 12:27:53;;;;;;;4.40;2.33;;;20.30;68.80;;;;;;6096442;23;20161;-75
2023/03/31 12:30:29;;;;;;;5.03;2.35;;;20.40;68.00;;;;;;6093837;23;20174;-77
2023/03/31 12:33:05;;;;;;;5.57;2.50;;;20.50;67.80;;;;;;6091879;23;20396;-78
2023/03/31 12:35:45;;;;;;;4.72;2.38;;;20.70;67.20;;;;;;6093086;23;20158;-76
2023/03/31 12:38:30;;;;;;;4.40;2.42;;;20.80;66.70;;;;;;6089973;23;20209;-76
2023/03/31 12:41:07;;;;;;;4.22;2.08;;;20.90;65.80;;;;;;6093612;23;20166;-77
2023/03/31 12:44:09;;;;;;;3.15;1.67;;;20.80;64.00;;;;;;6094975;23;20162;-77
2023/03/31 12:47:02;;;;;;;2.78;1.42;;;20.90;63.90;;;;;;6046991;23;20177;-76
2023/03/31 12:49:43;;;;;;;7.88;1.98;;;21.00;63.00;;;;;;6094574;23;20162;-75
2023/03/31 12:52:18;;;;;;;4.18;2.42;;;21.10;62.30;;;;;;6094375;23;20166;-75
2023/03/31 12:55:08;;;;;;;6.50;2.05;;;21.10;61.50;;;;;;6095477;23;20169;-77
2023/03/31 12:57:37;;;;;;;4.10;2.13;;;21.20;63.00;;;;;;6091214;23;20973;-75
2023/03/31 13:00:30;;;;;;;5.75;2.40;;;21.30;61.40;;;;;;6092907;23;20194;-75
2023/03/31 13:03:36;;;;;;;4.05;1.92;;;21.30;61.10;;;;;;6067047;23;20653;-76
2023/03/31 13:06:05;;;;;;;3.05;1.63;;;21.40;59.90;;;;;;6091082;23;20170;-78
2023/03/31 13:08:55;;;;;;;5.63;1.95;;;21.50;60.40;;;;;;6090632;23;20225;-76
2023/03/31 13:11:37;;;;;;;5.53;2.10;;;21.70;60.10;;;;;;6093740;23;20279;-75
2023/03/31 13:14:13;;;;;;;5.00;1.73;;;21.90;60.20;;;;;;6092442;23;20165;-75
2023/03/31 13:16:41;;;;;;;3.97;1.73;;;22.20;59.40;;;;;;6093456;23;20180;-74